Valley International Airport
KHRL : now visible

Airfield :











YOU CAN JOIN US ON...

 
LOGIN :

Register | Disclaimer

   EN    FR    IT 

 









Legend :    VFR   Marginal VFR   IFR   Intensive IFR   Very Intensive IFR
Visi :
Ceiling :
>= 8 km
>= 3000ft
5 to 8 km
1000 to 3000 ft
1500m to 5 km
500 to 1000 ft
800 to 1500m
200 to 500 ft
< 800m
< 200 ft
Symbols :   Thunderstorms  Fog  Heavy snow  Heavy precipitations  Wind > 20 kt






- Airport Elevation : 36 ft
- IATA code : HRL


KHRL - Valley International

CURRENT METAR :
  • 271552Z COR 17005KT 4SM HZ SCT024 28/27 A2985 RMK AO2 SLP107 T02780267

EXPIRED METARs :
  • 271542Z 15008KT 4SM HZ BKN022 OVC028 28/27 A2985 RMK AO2 T02780267
  • 271452Z 15009KT 3SM HZ OVC006 27/27 A2984 RMK AO2 SLP105 T02720267 51029
  • 271352Z 14008KT 3SM HZ BR OVC007 27/27 A2982 RMK AO2 SLP098 T02720272
  • 271257Z 14009KT 3SM HZ BR OVC008 27/27 A2979 RMK AO2 T02720272
  • 271252Z 13009KT 2 1/2SM HZ BR OVC006 27/27 A2979 RMK AO2 SLP087 T02720272
  • 271152Z 14010KT 2SM HZ BR OVC006 27/27 A2976 RMK AO2 SLP076 T02670267 10267 20267 53003
  • 271143Z 14008KT 2 1/2SM HZ BR OVC006 27/27 A2976 RMK AO2 T02670267

TAF KHRL
Valid from the 27 at 15:00 until the 28 at 12:00 UTC


271518Z 2715/2812 15009KT 3SM HZ OVC006
FM280300 12007KT P6SM BKN027
KZHU FIR / North America



MET'MAP, your aeronautical weather chart ! - Copyright ORBIFLY December 2007 - Disclaimer

ORBIFLY MET'MAP TEAM :

Programming & Development : Alexandra Zaïnal
Original concept : Baudouin d'Aumeries
Technical & hardware support : Manuel Goepfert
Assistance : Marc-Olivier Méhu




SOURCES & CREDITS :

   NOAA       Earth
Advisory